PWSweather.com
Personal Weather Stations
Station Observations
SBERGENWX
Wood Ridge, NJ 07075

Wood Ridge, NJ 07075

Lat: 40.851667, Lon: -74.088131

Elevation: 177

Station Type: Davis Vantage Vue

http://201weather.com/

Latest ConditionsUpdated 4:45:01 AM EDT Sunday, Jul 23, 2017
Currently Today's Max Today's Min Today's Average
Temperature 71.7°F22.1°C 72.8°F22.7°C 70.9°F21.6°C 71.4°F21.9°C
Dew Point 70.2°F21.2°C 70.2°F21.2°C 68.8°F20.4°C 69.4°F20.8°C
Winds Calm Calm 2.3 mph SE3.7 kmh SE - 0.1 mph 0.2 kmh
Wind Gusts -- 2.3 mph3.7 kmh - -
Humidity 95% 95% 90% 93%
Pressure 29.74 in1007.1 mb 29.74 in1007.1 mb 29.72 in1006.4 mb -
Precipitation - 0.04 in1.0 mm - -
Hour Temp Dew Point Humidity Winds Wind Gusts Pressure Precip Precip Rate Daily Precip Total
04:45 AM 71.7°F22.1°C 70.2°F21.2°C 95% Calm Calm -- 29.74 in1007.1 mb - 0.00 in0.0 mm 0.04 in1.0 mm
04:30 AM 71.5°F21.9°C 70.0°F21.1°C 95% Calm Calm -- 29.73 in1006.8 mb - 0.00 in0.0 mm 0.04 in1.0 mm
04:15 AM 71.6°F22.0°C 70.1°F21.2°C 95% Calm Calm -- 29.73 in1006.8 mb - 0.00 in0.0 mm 0.04 in1.0 mm
04:00 AM 71.5°F21.9°C 70.0°F21.1°C 95% Calm Calm -- 29.73 in1006.8 mb - 0.00 in0.0 mm 0.04 in1.0 mm
03:45 AM 71.3°F21.8°C 69.8°F21.0°C 95% Calm Calm -- 29.72 in1006.4 mb - 0.00 in0.0 mm 0.04 in1.0 mm
03:30 AM 71.3°F21.8°C 69.7°F20.9°C 95% Calm Calm -- 29.72 in1006.4 mb - 0.00 in0.0 mm 0.04 in1.0 mm
03:15 AM 71.3°F21.8°C 69.5°F20.8°C 94% Calm Calm -- 29.72 in1006.4 mb - 0.00 in0.0 mm 0.04 in1.0 mm
03:00 AM 71.2°F21.8°C 69.4°F20.8°C 94% Calm Calm -- 29.72 in1006.4 mb - 0.00 in0.0 mm 0.04 in1.0 mm
02:45 AM 71.3°F21.8°C 69.5°F20.8°C 94% Calm Calm -- 29.73 in1006.8 mb - 0.00 in0.0 mm 0.04 in1.0 mm
02:30 AM 71.1°F21.7°C 69.0°F20.6°C 93% Calm Calm -- 29.72 in1006.4 mb - 0.00 in0.0 mm 0.04 in1.0 mm
02:15 AM 70.9°F21.6°C 69.1°F20.6°C 94% Calm Calm 1.2 mph1.9 kmh 29.72 in1006.4 mb - 0.00 in0.0 mm 0.04 in1.0 mm
02:00 AM 70.9°F21.6°C 69.1°F20.6°C 94% Calm Calm -- 29.72 in1006.4 mb - 0.00 in0.0 mm 0.04 in1.0 mm
01:45 AM 70.9°F21.6°C 68.8°F20.4°C 93% Calm Calm 1.2 mph1.9 kmh 29.72 in1006.4 mb - 0.00 in0.0 mm 0.04 in1.0 mm
01:30 AM 71.2°F21.8°C 69.1°F20.6°C 93% Calm Calm 2.3 mph3.7 kmh 29.73 in1006.8 mb - 0.00 in0.0 mm 0.04 in1.0 mm
01:15 AM 71.1°F21.7°C 69.0°F20.6°C 93% Calm Calm -- 29.73 in1006.8 mb - 0.00 in0.0 mm 0.04 in1.0 mm
01:00 AM 71.4°F21.9°C 69.0°F20.6°C 92% Calm Calm -- 29.74 in1007.1 mb - 0.00 in0.0 mm 0.04 in1.0 mm
12:45 AM 71.4°F21.9°C 69.0°F20.6°C 92% Calm Calm -- 29.74 in1007.1 mb - 0.00 in0.0 mm 0.04 in1.0 mm
12:30 AM 71.8°F22.1°C 69.0°F20.6°C 91% Calm Calm -- 29.74 in1007.1 mb - 0.00 in0.0 mm 0.04 in1.0 mm
12:15 AM 72.2°F22.3°C 69.1°F20.6°C 90% Calm Calm -- 29.74 in1007.1 mb - 0.04 in1.0 mm 0.04 in1.0 mm
12:00 AM 72.8°F22.7°C 69.7°F20.9°C 90% 2.3 mph SE3.7 kmh SE 2.3 mph3.7 kmh 29.73 in1006.8 mb - 0.02 in0.5 mm 0.02 in0.5 mm